createdAt,value
2023-02-01T00:00:07.631Z,2.92
2023-02-01T00:06:12.766Z,2.47
2023-02-01T00:12:16.190Z,2.85
2023-02-01T00:18:19.583Z,3.33
2023-02-01T00:24:24.453Z,4.13
2023-02-01T00:30:27.912Z,3.00
2023-02-01T00:36:31.340Z,3.50
2023-02-01T00:42:36.157Z,3.90
2023-02-01T00:48:39.525Z,4.25
2023-02-01T00:54:42.898Z,3.65
2023-02-01T01:00:50.485Z,3.40
2023-02-01T01:06:54.028Z,3.60
2023-02-01T01:12:57.398Z,3.67
2023-02-01T01:19:02.249Z,2.70
2023-02-01T01:25:05.898Z,2.08
2023-02-01T01:31:10.933Z,2.65
2023-02-01T01:37:15.782Z,3.00
2023-02-01T01:43:20.751Z,2.65
2023-02-01T01:49:25.254Z,2.80
2023-02-01T01:55:31.683Z,1.95
2023-02-01T02:01:35.060Z,2.30
2023-02-01T02:07:40.392Z,2.50
2023-02-01T02:13:45.836Z,2.53
2023-02-01T02:20:06.120Z,2.63
2023-02-01T02:26:39.405Z,2.40
2023-02-01T02:32:55.550Z,3.03
2023-02-01T02:39:07.191Z,2.92
2023-02-01T02:45:29.551Z,2.70
2023-02-01T02:51:52.857Z,2.97
2023-02-01T02:58:17.080Z,2.60
2023-02-01T03:04:21.142Z,2.80
2023-02-01T03:10:27.691Z,2.85
2023-02-01T03:16:34.935Z,2.53
2023-02-01T03:22:39.765Z,2.10
2023-02-01T03:28:45.310Z,2.28
2023-02-01T03:34:50.386Z,2.97
2023-02-01T03:40:55.485Z,2.08
2023-02-01T03:47:00.442Z,2.53
2023-02-01T03:53:06.755Z,2.50
2023-02-01T03:59:11.102Z,3.13
2023-02-01T04:05:14.530Z,2.78
2023-02-01T04:11:19.511Z,2.15
2023-02-01T04:17:22.914Z,2.45
2023-02-01T04:23:26.400Z,2.95
2023-02-01T04:29:31.224Z,2.28
2023-02-01T04:35:35.003Z,2.70
2023-02-01T04:41:38.387Z,2.88
2023-02-01T04:47:43.213Z,2.13
2023-02-01T04:53:46.592Z,3.08
2023-02-01T04:59:50.038Z,2.85
2023-02-01T05:05:55.015Z,2.97
2023-02-01T05:12:16.140Z,2.85
2023-02-01T05:18:19.609Z,3.22
2023-02-01T05:24:24.377Z,2.67
2023-02-01T05:30:27.818Z,2.30
2023-02-01T05:36:31.529Z,2.60
2023-02-01T05:42:36.566Z,2.38
2023-02-01T05:48:39.986Z,2.40
2023-02-01T05:54:43.397Z,2.97
2023-02-01T06:00:48.147Z,2.78
2023-02-01T06:06:52.220Z,2.70
2023-02-01T06:12:55.632Z,2.70
2023-02-01T06:19:00.476Z,2.58
2023-02-01T06:25:03.932Z,2.53
2023-02-01T06:31:08.501Z,3.65
2023-02-01T06:37:13.476Z,2.88
2023-02-01T06:43:16.907Z,2.78
2023-02-01T06:49:20.893Z,2.60
2023-02-01T06:55:25.643Z,2.05
2023-02-01T07:01:29.114Z,2.40
2023-02-01T07:07:32.601Z,2.08
2023-02-01T07:13:37.428Z,2.17
2023-02-01T07:19:40.792Z,2.38
2023-02-01T07:25:44.270Z,2.45
2023-02-01T07:31:49.027Z,2.70
2023-02-01T07:37:52.386Z,2.55
2023-02-01T07:43:56.121Z,3.10
2023-02-01T07:50:01.024Z,2.03
2023-02-01T07:56:04.754Z,2.45
2023-02-01T08:02:08.261Z,2.40
2023-02-01T08:08:13.079Z,3.13
2023-02-01T08:14:16.612Z,3.00
2023-02-01T08:20:23.187Z,2.80
2023-02-01T08:26:28.739Z,3.13
2023-02-01T08:32:32.173Z,2.33
2023-02-01T08:38:37.547Z,2.30
2023-02-01T08:44:42.272Z,2.20
2023-02-01T08:50:45.679Z,3.03
2023-02-01T08:56:49.135Z,2.57
2023-02-01T09:02:54.204Z,2.25
2023-02-01T09:08:58.500Z,2.25
2023-02-01T09:15:02.332Z,3.10
2023-02-01T09:21:08.575Z,2.50
2023-02-01T09:27:12.024Z,2.00
2023-02-01T09:33:15.414Z,2.72
2023-02-01T09:39:20.299Z,1.60
2023-02-01T09:45:26.909Z,2.88
2023-02-01T09:51:33.899Z,2.22
2023-02-01T09:57:43.811Z,1.80
2023-02-01T10:03:47.332Z,2.75
2023-02-01T10:09:55.639Z,2.10
2023-02-01T10:16:06.103Z,1.27
2023-02-01T10:22:11.766Z,1.95
2023-02-01T10:28:17.489Z,2.03
2023-02-01T10:34:23.882Z,1.92
2023-02-01T10:40:28.177Z,1.48
2023-02-01T10:46:32.850Z,2.22
2023-02-01T10:52:42.392Z,1.63
2023-02-01T10:58:47.147Z,1.80
2023-02-01T11:04:50.680Z,1.60
2023-02-01T11:11:02.391Z,2.20
2023-02-01T11:17:20.046Z,1.75
2023-02-01T11:23:25.396Z,2.53
2023-02-01T11:29:32.276Z,1.80
2023-02-01T11:35:37.804Z,2.10
2023-02-01T11:41:45.692Z,2.35
2023-02-01T11:47:54.572Z,1.98
2023-02-01T11:54:04.874Z,2.10
2023-02-01T12:00:15.039Z,2.00
2023-02-01T12:06:25.456Z,2.20
2023-02-01T12:12:34.163Z,2.42
2023-02-01T12:18:47.806Z,2.20
2023-02-01T12:24:57.999Z,1.33
2023-02-01T12:31:18.493Z,1.80
2023-02-01T12:37:26.684Z,2.38
2023-02-01T12:43:39.763Z,2.27
2023-02-01T12:49:56.057Z,2.28
2023-02-01T12:56:02.153Z,1.85
2023-02-01T13:02:15.359Z,1.77
2023-02-01T13:08:20.862Z,1.70
2023-02-01T13:14:28.494Z,1.70
2023-02-01T13:20:35.141Z,1.80
2023-02-01T13:26:38.590Z,1.08
2023-02-01T13:33:50.884Z,1.67
2023-02-01T13:39:33.091Z,2.03
2023-02-01T13:45:40.630Z,1.90
2023-02-01T13:51:45.024Z,2.00
2023-02-01T13:57:49.539Z,2.20
2023-02-01T14:03:54.916Z,2.20
2023-02-01T14:09:58.319Z,1.17
2023-02-01T14:16:15.128Z,2.00
2023-02-01T14:22:34.143Z,1.83
2023-02-01T14:28:41.553Z,1.25
2023-02-01T14:34:54.691Z,1.92
2023-02-01T14:40:58.081Z,1.67
2023-02-01T14:47:28.589Z,1.80
2023-02-01T14:53:35.962Z,1.80
2023-02-01T14:59:39.919Z,1.70
2023-02-01T15:05:43.337Z,1.95
2023-02-01T15:11:58.488Z,2.08
2023-02-01T15:18:02.688Z,2.30
2023-02-01T15:24:15.736Z,1.85
2023-02-01T15:30:22.041Z,2.30
2023-02-01T15:36:28.515Z,2.33
2023-02-01T15:42:32.271Z,2.45
2023-02-01T15:48:39.165Z,2.42
2023-02-01T15:54:47.016Z,2.42
2023-02-01T16:00:51.844Z,2.67
2023-02-01T16:06:57.595Z,2.20
2023-02-01T16:13:01.553Z,2.95
2023-02-01T16:19:04.984Z,2.57
2023-02-01T16:25:10.803Z,2.33
2023-02-01T16:31:20.174Z,3.15
2023-02-01T16:37:24.680Z,3.25
2023-02-01T16:43:29.680Z,3.88
2023-02-01T16:49:33.187Z,3.50
2023-02-01T16:55:37.075Z,3.08
2023-02-01T17:01:44.689Z,4.07
2023-02-01T17:07:49.626Z,2.97
2023-02-01T17:13:53.253Z,4.20
2023-02-01T17:19:58.170Z,2.55
2023-02-01T17:26:03.501Z,2.88
2023-02-01T17:32:07.189Z,2.55
2023-02-01T17:38:14.139Z,3.92
2023-02-01T17:44:17.611Z,3.20
2023-02-01T17:50:20.992Z,2.78
2023-02-01T17:56:26.914Z,4.75
2023-02-01T18:02:30.414Z,3.60
2023-02-01T18:08:33.993Z,3.33
2023-02-01T18:14:38.737Z,3.78
2023-02-01T18:20:44.502Z,3.63
2023-02-01T18:26:47.941Z,3.95
2023-02-01T18:32:53.114Z,3.70
2023-02-01T18:38:57.894Z,4.75
2023-02-01T18:45:01.820Z,3.38
2023-02-01T18:51:06.923Z,4.20
2023-02-01T18:57:12.310Z,4.07
2023-02-01T19:03:16.361Z,3.75
2023-02-01T19:09:21.144Z,3.38
2023-02-01T19:15:24.851Z,2.67
2023-02-01T19:21:28.426Z,3.13
2023-02-01T19:27:33.238Z,3.63
2023-02-01T19:33:37.173Z,3.72
2023-02-01T19:39:41.959Z,4.38
2023-02-01T19:45:46.859Z,3.65
2023-02-01T19:51:50.604Z,2.83
2023-02-01T19:57:54.048Z,3.00
2023-02-01T20:04:02.357Z,3.42
2023-02-01T20:10:06.437Z,2.92
2023-02-01T20:16:09.908Z,2.85
2023-02-01T20:22:14.883Z,2.75
2023-02-01T20:28:19.135Z,3.10
2023-02-01T20:34:22.704Z,2.92
2023-02-01T20:40:28.224Z,2.70
2023-02-01T20:46:31.622Z,2.75
2023-02-01T20:52:35.021Z,2.70
2023-02-01T20:58:39.900Z,2.90
2023-02-01T21:04:43.412Z,2.53
2023-02-01T21:10:56.600Z,2.78
2023-02-01T21:17:01.795Z,2.60
2023-02-01T21:23:06.034Z,2.03
2023-02-01T21:29:10.049Z,2.45
2023-02-01T21:35:14.804Z,2.33
2023-02-01T21:41:35.666Z,2.40
2023-02-01T21:47:39.840Z,2.40
2023-02-01T21:53:45.180Z,2.58
2023-02-01T21:59:48.613Z,2.58
2023-02-01T22:05:52.132Z,2.38
2023-02-01T22:11:57.057Z,2.17
2023-02-01T22:18:00.446Z,2.67
2023-02-01T22:24:03.917Z,2.17
2023-02-01T22:30:09.355Z,2.42
2023-02-01T22:36:12.778Z,2.97
2023-02-01T22:42:16.123Z,2.40
2023-02-01T22:48:20.990Z,2.47
2023-02-01T22:54:24.373Z,2.33
2023-02-01T23:00:28.010Z,3.05
2023-02-01T23:06:33.170Z,2.65
2023-02-01T23:12:36.544Z,2.30
2023-02-01T23:18:40.442Z,2.50
2023-02-01T23:24:45.271Z,2.58
2023-02-01T23:30:48.826Z,2.40
2023-02-01T23:36:52.460Z,2.10
2023-02-01T23:43:11.348Z,2.50
2023-02-01T23:49:15.650Z,1.50
2023-02-01T23:55:19.026Z,1.95
